sensor_id;sensor_type;location;lat;lon;timestamp;P1;durP1;ratioP1;P2;durP2;ratioP2
14048;SDS011;7099;53.922;10.728;2022-10-10T00:04:04;3.20;;;1.80;;
14048;SDS011;7099;53.922;10.728;2022-10-10T00:08:30;6.60;;;1.50;;
14048;SDS011;7099;53.922;10.728;2022-10-10T00:12:55;5.00;;;1.63;;
14048;SDS011;7099;53.922;10.728;2022-10-10T00:17:20;5.30;;;1.60;;
14048;SDS011;7099;53.922;10.728;2022-10-10T00:21:45;4.53;;;1.80;;
14048;SDS011;7099;53.922;10.728;2022-10-10T00:26:10;6.90;;;1.60;;
14048;SDS011;7099;53.922;10.728;2022-10-10T00:30:42;4.20;;;1.47;;
14048;SDS011;7099;53.922;10.728;2022-10-10T00:35:08;5.33;;;1.60;;
14048;SDS011;7099;53.922;10.728;2022-10-10T00:39:34;6.70;;;1.70;;
14048;SDS011;7099;53.922;10.728;2022-10-10T00:44:00;5.87;;;1.63;;
14048;SDS011;7099;53.922;10.728;2022-10-10T00:48:41;7.90;;;2.03;;
14048;SDS011;7099;53.922;10.728;2022-10-10T00:53:08;8.90;;;1.80;;
14048;SDS011;7099;53.922;10.728;2022-10-10T00:57:37;3.77;;;1.80;;
14048;SDS011;7099;53.922;10.728;2022-10-10T01:02:02;7.00;;;1.70;;
14048;SDS011;7099;53.922;10.728;2022-10-10T01:06:29;5.40;;;1.70;;
14048;SDS011;7099;53.922;10.728;2022-10-10T01:11:10;4.10;;;1.70;;
14048;SDS011;7099;53.922;10.728;2022-10-10T01:16:11;9.80;;;2.20;;
14048;SDS011;7099;53.922;10.728;2022-10-10T01:25:30;9.40;;;1.90;;
14048;SDS011;7099;53.922;10.728;2022-10-10T01:30:13;7.30;;;1.73;;
14048;SDS011;7099;53.922;10.728;2022-10-10T01:39:35;7.30;;;1.70;;
14048;SDS011;7099;53.922;10.728;2022-10-10T01:44:14;5.60;;;2.00;;
14048;SDS011;7099;53.922;10.728;2022-10-10T01:48:45;4.50;;;1.63;;
14048;SDS011;7099;53.922;10.728;2022-10-10T01:53:15;7.17;;;1.90;;
14048;SDS011;7099;53.922;10.728;2022-10-10T02:03:15;4.63;;;1.73;;
14048;SDS011;7099;53.922;10.728;2022-10-10T02:07:57;4.47;;;1.83;;
14048;SDS011;7099;53.922;10.728;2022-10-10T02:12:30;6.00;;;2.00;;
14048;SDS011;7099;53.922;10.728;2022-10-10T02:16:57;7.13;;;2.00;;
14048;SDS011;7099;53.922;10.728;2022-10-10T02:21:24;3.23;;;1.90;;
14048;SDS011;7099;53.922;10.728;2022-10-10T02:25:51;2.33;;;1.90;;
14048;SDS011;7099;53.922;10.728;2022-10-10T02:30:19;4.37;;;1.67;;
14048;SDS011;7099;53.922;10.728;2022-10-10T02:34:47;4.93;;;2.10;;
14048;SDS011;7099;53.922;10.728;2022-10-10T03:36:50;3.93;;;2.20;;
14048;SDS011;7099;53.922;10.728;2022-10-10T03:41:15;6.00;;;2.00;;
14048;SDS011;7099;53.922;10.728;2022-10-10T03:45:41;6.67;;;2.10;;
14048;SDS011;7099;53.922;10.728;2022-10-10T03:50:08;7.97;;;2.40;;
14048;SDS011;7099;53.922;10.728;2022-10-10T03:54:34;6.10;;;2.80;;
14048;SDS011;7099;53.922;10.728;2022-10-10T03:58:59;8.60;;;2.47;;
14048;SDS011;7099;53.922;10.728;2022-10-10T04:03:27;7.20;;;2.00;;
14048;SDS011;7099;53.922;10.728;2022-10-10T04:07:53;6.00;;;2.53;;
14048;SDS011;7099;53.922;10.728;2022-10-10T04:12:18;5.93;;;2.57;;
14048;SDS011;7099;53.922;10.728;2022-10-10T04:16:44;6.33;;;2.10;;
14048;SDS011;7099;53.922;10.728;2022-10-10T04:21:09;4.27;;;2.60;;
14048;SDS011;7099;53.922;10.728;2022-10-10T04:25:35;5.00;;;2.30;;
14048;SDS011;7099;53.922;10.728;2022-10-10T04:30:01;5.43;;;2.00;;
14048;SDS011;7099;53.922;10.728;2022-10-10T04:34:27;3.90;;;2.27;;
14048;SDS011;7099;53.922;10.728;2022-10-10T04:38:52;7.90;;;2.37;;
14048;SDS011;7099;53.922;10.728;2022-10-10T04:43:17;8.17;;;2.13;;
14048;SDS011;7099;53.922;10.728;2022-10-10T04:47:42;5.83;;;2.13;;
14048;SDS011;7099;53.922;10.728;2022-10-10T04:52:08;3.87;;;2.57;;
14048;SDS011;7099;53.922;10.728;2022-10-10T04:56:34;4.13;;;2.30;;
14048;SDS011;7099;53.922;10.728;2022-10-10T05:00:59;12.37;;;2.27;;
14048;SDS011;7099;53.922;10.728;2022-10-10T05:05:25;5.50;;;2.20;;
14048;SDS011;7099;53.922;10.728;2022-10-10T05:09:50;4.17;;;2.50;;
14048;SDS011;7099;53.922;10.728;2022-10-10T05:14:15;6.78;;;2.70;;
14048;SDS011;7099;53.922;10.728;2022-10-10T05:18:41;9.27;;;2.70;;
14048;SDS011;7099;53.922;10.728;2022-10-10T05:23:06;3.83;;;1.93;;
14048;SDS011;7099;53.922;10.728;2022-10-10T05:27:32;3.00;;;2.00;;
14048;SDS011;7099;53.922;10.728;2022-10-10T05:31:57;7.57;;;2.20;;
14048;SDS011;7099;53.922;10.728;2022-10-10T05:36:22;5.90;;;2.13;;
14048;SDS011;7099;53.922;10.728;2022-10-10T05:40:47;8.90;;;2.70;;
14048;SDS011;7099;53.922;10.728;2022-10-10T05:45:14;5.43;;;2.37;;
14048;SDS011;7099;53.922;10.728;2022-10-10T05:49:39;6.53;;;2.30;;
14048;SDS011;7099;53.922;10.728;2022-10-10T05:54:06;7.23;;;2.40;;
14048;SDS011;7099;53.922;10.728;2022-10-10T05:58:32;8.60;;;2.20;;
14048;SDS011;7099;53.922;10.728;2022-10-10T06:02:57;7.90;;;2.63;;
14048;SDS011;7099;53.922;10.728;2022-10-10T06:07:23;8.13;;;2.90;;
14048;SDS011;7099;53.922;10.728;2022-10-10T06:12:04;8.20;;;2.50;;
14048;SDS011;7099;53.922;10.728;2022-10-10T06:16:29;4.37;;;2.27;;
14048;SDS011;7099;53.922;10.728;2022-10-10T06:20:54;10.10;;;3.10;;
14048;SDS011;7099;53.922;10.728;2022-10-10T06:25:25;7.67;;;2.90;;
14048;SDS011;7099;53.922;10.728;2022-10-10T06:30:04;5.60;;;2.80;;
14048;SDS011;7099;53.922;10.728;2022-10-10T06:34:31;6.67;;;2.57;;
14048;SDS011;7099;53.922;10.728;2022-10-10T06:38:56;5.53;;;2.20;;
14048;SDS011;7099;53.922;10.728;2022-10-10T06:43:22;5.53;;;2.27;;
14048;SDS011;7099;53.922;10.728;2022-10-10T06:47:47;10.13;;;2.50;;
14048;SDS011;7099;53.922;10.728;2022-10-10T06:52:13;12.17;;;2.97;;
14048;SDS011;7099;53.922;10.728;2022-10-10T06:56:38;7.47;;;2.60;;
14048;SDS011;7099;53.922;10.728;2022-10-10T07:01:04;7.10;;;2.80;;
14048;SDS011;7099;53.922;10.728;2022-10-10T07:05:29;4.47;;;2.40;;
14048;SDS011;7099;53.922;10.728;2022-10-10T07:09:55;5.70;;;2.50;;
14048;SDS011;7099;53.922;10.728;2022-10-10T07:14:20;4.13;;;2.10;;
14048;SDS011;7099;53.922;10.728;2022-10-10T07:18:45;9.63;;;2.80;;
14048;SDS011;7099;53.922;10.728;2022-10-10T07:23:10;8.67;;;2.57;;
14048;SDS011;7099;53.922;10.728;2022-10-10T07:27:36;4.30;;;2.27;;
14048;SDS011;7099;53.922;10.728;2022-10-10T07:32:01;10.60;;;2.30;;
14048;SDS011;7099;53.922;10.728;2022-10-10T07:36:27;4.23;;;2.10;;
14048;SDS011;7099;53.922;10.728;2022-10-10T07:40:52;6.10;;;2.40;;
14048;SDS011;7099;53.922;10.728;2022-10-10T07:45:17;12.67;;;2.40;;
14048;SDS011;7099;53.922;10.728;2022-10-10T07:49:42;5.13;;;2.53;;
14048;SDS011;7099;53.922;10.728;2022-10-10T07:54:08;4.77;;;2.27;;
14048;SDS011;7099;53.922;10.728;2022-10-10T07:58:34;3.63;;;2.30;;
14048;SDS011;7099;53.922;10.728;2022-10-10T08:03:00;7.33;;;2.87;;
14048;SDS011;7099;53.922;10.728;2022-10-10T08:07:25;2.77;;;2.30;;
14048;SDS011;7099;53.922;10.728;2022-10-10T08:11:51;5.03;;;2.33;;
14048;SDS011;7099;53.922;10.728;2022-10-10T08:16:16;3.00;;;2.00;;
14048;SDS011;7099;53.922;10.728;2022-10-10T08:20:44;4.43;;;2.37;;
14048;SDS011;7099;53.922;10.728;2022-10-10T08:25:09;5.10;;;2.60;;
14048;SDS011;7099;53.922;10.728;2022-10-10T08:29:35;5.30;;;2.30;;
14048;SDS011;7099;53.922;10.728;2022-10-10T08:34:00;4.60;;;2.30;;
14048;SDS011;7099;53.922;10.728;2022-10-10T08:38:25;6.30;;;2.40;;
14048;SDS011;7099;53.922;10.728;2022-10-10T08:42:51;7.10;;;2.53;;
14048;SDS011;7099;53.922;10.728;2022-10-10T08:47:25;6.37;;;2.20;;
14048;SDS011;7099;53.922;10.728;2022-10-10T08:52:40;3.57;;;2.13;;
14048;SDS011;7099;53.922;10.728;2022-10-10T09:47:36;4.10;;;2.00;;
14048;SDS011;7099;53.922;10.728;2022-10-10T09:56:57;8.93;;;2.10;;
14048;SDS011;7099;53.922;10.728;2022-10-10T11:12:59;5.13;;;2.30;;
14048;SDS011;7099;53.922;10.728;2022-10-10T11:17:52;8.30;;;2.20;;
14048;SDS011;7099;53.922;10.728;2022-10-10T11:22:40;3.93;;;2.30;;
14048;SDS011;7099;53.922;10.728;2022-10-10T11:27:21;6.10;;;2.30;;
14048;SDS011;7099;53.922;10.728;2022-10-10T11:36:35;6.63;;;1.83;;
14048;SDS011;7099;53.922;10.728;2022-10-10T11:41:04;6.87;;;2.03;;
14048;SDS011;7099;53.922;10.728;2022-10-10T12:14:09;4.50;;;2.23;;
14048;SDS011;7099;53.922;10.728;2022-10-10T12:18:44;5.93;;;1.70;;
14048;SDS011;7099;53.922;10.728;2022-10-10T12:32:54;4.23;;;2.00;;
14048;SDS011;7099;53.922;10.728;2022-10-10T17:43:04;10.13;;;3.70;;
14048;SDS011;7099;53.922;10.728;2022-10-10T17:47:30;7.07;;;4.40;;
14048;SDS011;7099;53.922;10.728;2022-10-10T17:51:55;7.73;;;4.47;;
14048;SDS011;7099;53.922;10.728;2022-10-10T17:56:20;8.40;;;4.30;;
14048;SDS011;7099;53.922;10.728;2022-10-10T18:00:46;7.97;;;4.80;;
14048;SDS011;7099;53.922;10.728;2022-10-10T18:05:11;9.33;;;4.80;;
14048;SDS011;7099;53.922;10.728;2022-10-10T18:09:36;10.80;;;4.23;;
14048;SDS011;7099;53.922;10.728;2022-10-10T18:14:02;6.40;;;5.03;;
14048;SDS011;7099;53.922;10.728;2022-10-10T19:51:34;9.03;;;1.80;;
14048;SDS011;7099;53.922;10.728;2022-10-10T19:56:01;5.67;;;1.73;;
14048;SDS011;7099;53.922;10.728;2022-10-10T20:00:31;13.07;;;1.53;;
14048;SDS011;7099;53.922;10.728;2022-10-10T20:04:56;5.77;;;1.70;;
14048;SDS011;7099;53.922;10.728;2022-10-10T20:09:21;9.27;;;1.87;;
14048;SDS011;7099;53.922;10.728;2022-10-10T20:13:49;16.47;;;2.60;;
14048;SDS011;7099;53.922;10.728;2022-10-10T20:18:19;19.40;;;1.93;;
14048;SDS011;7099;53.922;10.728;2022-10-10T20:22:45;10.40;;;2.00;;
14048;SDS011;7099;53.922;10.728;2022-10-10T20:27:10;6.90;;;1.70;;
14048;SDS011;7099;53.922;10.728;2022-10-10T20:31:35;15.10;;;1.90;;
14048;SDS011;7099;53.922;10.728;2022-10-10T20:36:01;12.30;;;1.80;;
14048;SDS011;7099;53.922;10.728;2022-10-10T20:40:27;9.07;;;1.90;;
14048;SDS011;7099;53.922;10.728;2022-10-10T20:44:53;6.53;;;1.80;;
14048;SDS011;7099;53.922;10.728;2022-10-10T20:49:19;10.17;;;2.00;;
14048;SDS011;7099;53.922;10.728;2022-10-10T20:53:50;14.17;;;2.10;;
14048;SDS011;7099;53.922;10.728;2022-10-10T20:58:21;12.73;;;2.13;;
14048;SDS011;7099;53.922;10.728;2022-10-10T21:02:47;22.10;;;2.70;;
14048;SDS011;7099;53.922;10.728;2022-10-10T21:07:12;9.53;;;2.77;;
14048;SDS011;7099;53.922;10.728;2022-10-10T21:11:38;11.77;;;2.30;;
14048;SDS011;7099;53.922;10.728;2022-10-10T21:16:04;14.67;;;2.60;;
14048;SDS011;7099;53.922;10.728;2022-10-10T21:20:38;11.30;;;2.50;;
14048;SDS011;7099;53.922;10.728;2022-10-10T21:25:03;13.70;;;2.20;;
14048;SDS011;7099;53.922;10.728;2022-10-10T21:29:29;12.70;;;2.47;;
14048;SDS011;7099;53.922;10.728;2022-10-10T21:33:54;15.50;;;2.20;;
14048;SDS011;7099;53.922;10.728;2022-10-10T21:38:20;10.93;;;2.17;;
14048;SDS011;7099;53.922;10.728;2022-10-10T21:42:45;10.40;;;2.07;;
14048;SDS011;7099;53.922;10.728;2022-10-10T21:47:10;19.93;;;2.53;;
14048;SDS011;7099;53.922;10.728;2022-10-10T21:51:37;5.80;;;2.07;;
14048;SDS011;7099;53.922;10.728;2022-10-10T21:56:06;11.27;;;2.40;;
14048;SDS011;7099;53.922;10.728;2022-10-10T22:00:32;11.63;;;2.17;;
14048;SDS011;7099;53.922;10.728;2022-10-10T22:04:57;13.50;;;2.40;;
14048;SDS011;7099;53.922;10.728;2022-10-10T22:09:25;16.67;;;2.20;;
14048;SDS011;7099;53.922;10.728;2022-10-10T22:13:51;15.43;;;2.00;;
14048;SDS011;7099;53.922;10.728;2022-10-10T22:18:16;13.80;;;3.13;;
14048;SDS011;7099;53.922;10.728;2022-10-10T22:40:28;8.47;;;2.17;;
14048;SDS011;7099;53.922;10.728;2022-10-10T22:44:54;17.73;;;2.33;;
14048;SDS011;7099;53.922;10.728;2022-10-10T22:49:19;15.33;;;2.20;;
14048;SDS011;7099;53.922;10.728;2022-10-10T22:53:45;11.83;;;2.53;;
14048;SDS011;7099;53.922;10.728;2022-10-10T22:58:11;12.83;;;2.93;;
14048;SDS011;7099;53.922;10.728;2022-10-10T23:02:37;24.87;;;2.67;;
14048;SDS011;7099;53.922;10.728;2022-10-10T23:11:27;9.00;;;2.53;;
14048;SDS011;7099;53.922;10.728;2022-10-10T23:42:25;21.13;;;3.03;;
14048;SDS011;7099;53.922;10.728;2022-10-10T23:46:51;11.40;;;2.73;;
14048;SDS011;7099;53.922;10.728;2022-10-10T23:51:16;13.70;;;2.30;;
14048;SDS011;7099;53.922;10.728;2022-10-10T23:55:41;12.20;;;2.90;;
